Time;durP1;ratioP1;P1;durP2;ratioP2;P2;SDS_P1;SDS_P2;PMS_P1;PMS_P2;Temp;Humidity;BMP_temperature;BMP_pressure;BME280_temperature;BME280_humidity;BME280_pressure;Samples;Min_cycle;Max_cycle;Signal;HPM_P1;HPM_P2
2022/05/28 00:01:27;;;;;;;;;;;;;;;;;;5104563;28;919;-75
2022/05/28 00:03:54;;;;;;;;;;;;;;;;;;5104362;28;1967;-76
2022/05/28 00:06:21;;;;;;;;;;;;;;;;;;5085052;28;1368;-76
2022/05/28 00:08:47;;;;;;;;;;;;;;;;;;5095169;28;1156;-76
2022/05/28 00:11:15;;;;;;;;;;;;;;;;;;5083171;28;1342;-76
2022/05/28 00:13:41;;;;;;;;;;;;;;;;;;5084289;28;1333;-76
2022/05/28 00:16:06;;;;;;;;;;;;;;;;;;5085731;28;1169;-76
2022/05/28 00:18:32;;;;;;;;;;;;;;;;;;5096384;28;1491;-77
2022/05/28 00:20:58;;;;;;;;;;;;;;;;;;5099765;28;1216;-77
2022/05/28 00:23:23;;;;;;;;;;;;;;;;;;5084135;28;1958;-77
2022/05/28 00:25:49;;;;;;;;;;;;;;;;;;5081565;28;1207;-77
2022/05/28 00:28:14;;;;;;;;;;;;;;;;;;5103351;28;1175;-77
2022/05/28 00:30:40;;;;;;;;;;;;;;;;;;5104791;28;1128;-77
2022/05/28 00:33:05;;;;;;;;;;;;;;;;;;5103769;28;1210;-77
2022/05/28 00:35:30;;;;;;;;;;;;;;;;;;5090225;28;1195;-77
2022/05/28 00:37:56;;;;;;;;;;;;;;;;;;5082951;28;1262;-76
2022/05/28 00:40:26;;;;;;;;;;;;;;;;;;5067656;28;1232;-77
2022/05/28 00:42:52;;;;;;;;;;;;;;;;;;5084990;28;1897;-76
2022/05/28 00:45:18;;;;;;;;;;;;;;;;;;5105544;28;1353;-77
2022/05/28 00:47:45;;;;;;;;;;;;;;;;;;5101823;28;1014;-77
2022/05/28 00:50:11;;;;;;;;;;;;;;;;;;5088076;28;1332;-77
2022/05/28 00:52:40;;;;;;;;;;;;;;;;;;5069913;27;1299;-77
2022/05/28 00:55:05;;;;;;;;;;;;;;;;;;5084518;27;1398;-77
2022/05/28 00:57:30;;;;;;;;;;;;;;;;;;5107026;27;1180;-77
2022/05/28 00:59:55;;;;;;;;;;;;;;;;;;5107939;27;1227;-76
2022/05/28 01:02:35;;;;;;;;;;;;;;;;;;5090725;27;1318;-77
2022/05/28 01:05:10;;;;;;;;;;;;;;;;;;5123113;27;1088;-77
2022/05/28 01:07:44;;;;;;;;;;;;;;;;;;5108057;27;1254;-76
2022/05/28 01:10:13;;;;;;;;;;;;;;;;;;5122251;27;1211;-76
2022/05/28 01:13:04;;;;;;;;;;;;;;;;;;5125869;27;1179;-77
2022/05/28 01:15:33;;;;;;;;;;;;;;;;;;5067744;28;1156;-77
2022/05/28 01:18:03;;;;;;;;;;;;;;;;;;5068734;28;1071;-77
2022/05/28 01:20:39;;;;;;;;;;;;;;;;;;5088645;28;829;-76
2022/05/28 01:23:08;;;;;;;;;;;;;;;;;;5068829;28;1909;-77
2022/05/28 01:25:42;;;;;;;;;;;;;;;;;;5073009;28;1374;-77
2022/05/28 01:28:10;;;;;;;;;;;;;;;;;;5109547;28;1168;-77
2022/05/28 01:30:38;;;;;;;;;;;;;;;;;;5089635;28;1285;-77
2022/05/28 01:33:03;;;;;;;;;;;;;;;;;;5088971;28;1250;-77
2022/05/28 01:35:30;;;;;;;;;;;;;;;;;;5097344;27;1118;-76
2022/05/28 01:37:57;;;;;;;;;;;;;;;;;;5099874;27;1274;-76
2022/05/28 01:40:23;;;;;;;;;;;;;;;;;;5103816;27;1188;-76
2022/05/28 01:42:51;;;;;;;;;;;;;;;;;;5072833;28;1965;-76
2022/05/28 01:45:18;;;;;;;;;;;;;;;;;;5086086;28;1229;-76
2022/05/28 01:47:44;;;;;;;;;;;;;;;;;;5098182;27;1199;-76
2022/05/28 01:50:11;;;;;;;;;;;;;;;;;;5091825;27;1313;-76
2022/05/28 01:52:38;;;;;;;;;;;;;;;;;;5104957;27;1254;-76
2022/05/28 01:55:04;;;;;;;;;;;;;;;;;;5093299;27;1366;-76
2022/05/28 01:57:33;;;;;;;;;;;;;;;;;;5069347;28;1262;-76
2022/05/28 01:59:59;;;;;;;;;;;;;;;;;;5093883;27;1132;-76
2022/05/28 02:02:24;;;;;;;;;;;;;;;;;;5102820;27;1214;-76
2022/05/28 02:04:49;;;;;;;;;;;;;;;;;;5121331;27;1981;-76
2022/05/28 02:07:16;;;;;;;;;;;;;;;;;;5107536;27;1362;-76
2022/05/28 02:09:44;;;;;;;;;;;;;;;;;;5105740;27;1265;-76
2022/05/28 02:12:09;;;;;;;;;;;;;;;;;;5106018;27;1198;-75
2022/05/28 02:14:38;;;;;;;;;;;;;;;;;;5106745;27;1278;-75
2022/05/28 02:17:06;;;;;;;;;;;;;;;;;;5099876;28;1147;-76
2022/05/28 02:19:50;;;;;;;;;;;;;;;;;;5103038;28;1255;-76
2022/05/28 02:22:18;;;;;;;;;;;;;;;;;;5105577;27;1132;-77
2022/05/28 02:24:55;;;;;;;;;;;;;;;;;;5103950;27;1923;-77
2022/05/28 02:27:21;;;;;;;;;;;;;;;;;;5104799;27;1562;-77
2022/05/28 02:29:47;;;;;;;;;;;;;;;;;;5097116;28;1340;-77
2022/05/28 02:32:17;;;;;;;;;;;;;;;;;;5104459;28;842;-77
2022/05/28 02:34:45;;;;;;;;;;;;;;;;;;5084907;28;1318;-77
2022/05/28 02:37:10;;;;;;;;;;;;;;;;;;5069116;28;1317;-77
2022/05/28 02:39:36;;;;;;;;;;;;;;;;;;5084938;28;1266;-77
2022/05/28 02:42:02;;;;;;;;;;;;;;;;;;5084236;28;1442;-77
2022/05/28 02:44:28;;;;;;;;;;;;;;;;;;5070527;28;1912;-77
2022/05/28 02:46:54;;;;;;;;;;;;;;;;;;5070014;28;1163;-76
2022/05/28 02:49:25;;;;;;;;;;;;;;;;;;5099194;28;1218;-76
2022/05/28 02:51:52;;;;;;;;;;;;;;;;;;5094321;28;1376;-76
2022/05/28 02:54:17;;;;;;;;;;;;;;;;;;5087263;28;1160;-75
2022/05/28 02:56:42;;;;;;;;;;;;;;;;;;5064316;28;1263;-76
2022/05/28 02:59:07;;;;;;;;;;;;;;;;;;5087122;28;1235;-76
2022/05/28 03:01:33;;;;;;;;;;;;;;;;;;5096122;28;1274;-76
2022/05/28 03:03:59;;;;;;;;;;;;;;;;;;5077477;28;1999;-76
2022/05/28 03:06:25;;;;;;;;;;;;;;;;;;5085500;28;1302;-75
2022/05/28 03:08:51;;;;;;;;;;;;;;;;;;5085067;28;1362;-75
2022/05/28 03:11:16;;;;;;;;;;;;;;;;;;5067734;28;1321;-76
2022/05/28 03:13:42;;;;;;;;;;;;;;;;;;5085081;28;1096;-75
2022/05/28 03:16:07;;;;;;;;;;;;;;;;;;5105502;28;833;-76
2022/05/28 03:18:40;;;;;;;;;;;;;;;;;;5066532;28;1298;-77
2022/05/28 03:21:06;;;;;;;;;;;;;;;;;;5070135;28;1117;-76
2022/05/28 03:23:31;;;;;;;;;;;;;;;;;;5070564;28;1973;-76
2022/05/28 03:25:56;;;;;;;;;;;;;;;;;;5081546;28;1258;-75
2022/05/28 03:28:22;;;;;;;;;;;;;;;;;;5108707;28;857;-76
2022/05/28 03:30:47;;;;;;;;;;;;;;;;;;5089571;28;1148;-76
2022/05/28 03:33:12;;;;;;;;;;;;;;;;;;5070825;28;1087;-76
2022/05/28 03:35:40;;;;;;;;;;;;;;;;;;5107159;27;1441;-77
2022/05/28 03:38:06;;;;;;;;;;;;;;;;;;5108204;27;1053;-76
2022/05/28 03:40:31;;;;;;;;;;;;;;;;;;5124338;27;1156;-76
2022/05/28 03:42:56;;;;;;;;;;;;;;;;;;5109327;27;1894;-75
2022/05/28 03:45:23;;;;;;;;;;;;;;;;;;5092033;27;1164;-76
2022/05/28 03:47:48;;;;;;;;;;;;;;;;;;5101171;28;1210;-76
2022/05/28 03:50:13;;;;;;;;;;;;;;;;;;5116034;27;1180;-76
2022/05/28 03:52:39;;;;;;;;;;;;;;;;;;5110665;27;1301;-76
2022/05/28 03:55:05;;;;;;;;;;;;;;;;;;5106480;27;1152;-76
2022/05/28 03:57:31;;;;;;;;;;;;;;;;;;5093857;28;1262;-76
2022/05/28 03:59:57;;;;;;;;;;;;;;;;;;5104502;28;1029;-75
2022/05/28 04:02:22;;;;;;;;;;;;;;;;;;5088148;27;1164;-76
2022/05/28 04:04:47;;;;;;;;;;;;;;;;;;5107019;27;1914;-76
2022/05/28 04:07:13;;;;;;;;;;;;;;;;;;5109918;27;1195;-76
2022/05/28 04:09:41;;;;;;;;;;;;;;;;;;5095410;28;1467;-76
2022/05/28 04:12:07;;;;;;;;;;;;;;;;;;5086795;28;1397;-76
2022/05/28 04:14:32;;;;;;;;;;;;;;;;;;5089067;28;1411;-76
2022/05/28 04:16:58;;;;;;;;;;;;;;;;;;5086548;28;1159;-75
2022/05/28 04:19:23;;;;;;;;;;;;;;;;;;5088342;28;1303;-76
2022/05/28 04:21:48;;;;;;;;;;;;;;;;;;5087869;28;1219;-75
2022/05/28 04:24:14;;;;;;;;;;;;;;;;;;5088121;28;1882;-76
2022/05/28 04:26:41;;;;;;;;;;;;;;;;;;5106820;28;798;-77
2022/05/28 04:29:07;;;;;;;;;;;;;;;;;;5090367;28;1342;-81
2022/05/28 04:31:33;;;;;;;;;;;;;;;;;;5089525;28;1087;-80
2022/05/28 04:33:58;;;;;;;;;;;;;;;;;;5088804;28;1222;-77
2022/05/28 04:36:24;;;;;;;;;;;;;;;;;;5085314;28;1182;-76
2022/05/28 04:38:50;;;;;;;;;;;;;;;;;;5088665;28;1218;-76
2022/05/28 04:41:15;;;;;;;;;;;;;;;;;;5101607;27;1238;-76
2022/05/28 04:43:41;;;;;;;;;;;;;;;;;;5085937;28;1952;-76
2022/05/28 04:46:06;;;;;;;;;;;;;;;;;;5071290;28;1234;-76
2022/05/28 04:48:32;;;;;;;;;;;;;;;;;;5087733;27;1254;-75
2022/05/28 04:50:57;;;;;;;;;;;;;;;;;;5089359;28;1257;-76
2022/05/28 04:53:22;;;;;;;;;;;;;;;;;;5089434;28;1195;-76
2022/05/28 04:55:48;;;;;;;;;;;;;;;;;;5090477;27;1172;-76
2022/05/28 04:58:13;;;;;;;;;;;;;;;;;;5109955;27;1168;-75
2022/05/28 05:00:39;;;;;;;;;;;;;;;;;;5089629;27;1187;-76
2022/05/28 05:03:04;;;;;;;;;;;;;;;;;;5085181;28;2011;-76
2022/05/28 05:05:29;;;;;;;;;;;;;;;;;;5083379;28;1148;-75
2022/05/28 05:07:54;;;;;;;;;;;;;;;;;;5067534;28;1155;-75
2022/05/28 05:10:20;;;;;;;;;;;;;;;;;;5083977;28;1195;-76
2022/05/28 05:12:46;;;;;;;;;;;;;;;;;;5090748;27;1298;-76
2022/05/28 05:15:11;;;;;;;;;;;;;;;;;;5106035;27;1181;-76
2022/05/28 05:17:37;;;;;;;;;;;;;;;;;;5095283;28;1216;-76
2022/05/28 05:20:03;;;;;;;;;;;;;;;;;;5082706;28;1194;-76
2022/05/28 05:22:28;;;;;;;;;;;;;;;;;;5106621;28;1152;-76
2022/05/28 05:24:58;;;;;;;;;;;;;;;;;;5102731;28;1890;-76
2022/05/28 05:27:23;;;;;;;;;;;;;;;;;;5080406;27;1137;-76
2022/05/28 05:29:49;;;;;;;;;;;;;;;;;;5124421;27;1258;-75
2022/05/28 05:32:14;;;;;;;;;;;;;;;;;;5088180;27;1124;-76
2022/05/28 05:34:42;;;;;;;;;;;;;;;;;;5112092;27;1104;-76
2022/05/28 05:37:07;;;;;;;;;;;;;;;;;;5089556;28;1298;-76
2022/05/28 05:39:33;;;;;;;;;;;;;;;;;;5089638;28;1151;-76
2022/05/28 05:41:58;;;;;;;;;;;;;;;;;;5085236;28;1163;-76
2022/05/28 05:44:23;;;;;;;;;;;;;;;;;;5084085;28;1890;-76
2022/05/28 05:46:49;;;;;;;;;;;;;;;;;;5091836;28;1236;-76
2022/05/28 05:49:15;;;;;;;;;;;;;;;;;;5084900;28;1138;-75
2022/05/28 05:51:42;;;;;;;;;;;;;;;;;;5083449;28;1140;-75
2022/05/28 05:54:07;;;;;;;;;;;;;;;;;;5085094;28;1206;-75
2022/05/28 05:56:32;;;;;;;;;;;;;;;;;;5083365;28;1242;-75
2022/05/28 05:58:58;;;;;;;;;;;;;;;;;;5086856;28;881;-75
2022/05/28 06:01:24;;;;;;;;;;;;;;;;;;5084819;28;1301;-76
2022/05/28 06:03:53;;;;;;;;;;;;;;;;;;5085092;28;1905;-77
2022/05/28 06:06:19;;;;;;;;;;;;;;;;;;5079503;28;1289;-76
2022/05/28 06:08:44;;;;;;;;;;;;;;;;;;5067434;28;1285;-76
2022/05/28 06:11:10;;;;;;;;;;;;;;;;;;5083727;28;1200;-76
2022/05/28 06:13:35;;;;;;;;;;;;;;;;;;5085827;28;1300;-77
2022/05/28 06:16:01;;;;;;;;;;;;;;;;;;5083645;28;1274;-77
2022/05/28 06:18:26;;;;;;;;;;;;;;;;;;5092489;28;1221;-77
2022/05/28 06:20:53;;;;;;;;;;;;;;;;;;5084478;28;1269;-77
2022/05/28 06:23:18;;;;;;;;;;;;;;;;;;5085799;28;1949;-77
2022/05/28 06:25:43;;;;;;;;;;;;;;;;;;5084750;28;1224;-77
2022/05/28 06:28:09;;;;;;;;;;;;;;;;;;5089619;28;1377;-77
2022/05/28 06:30:34;;;;;;;;;;;;;;;;;;5079896;28;1216;-77
2022/05/28 06:32:59;;;;;;;;;;;;;;;;;;5080180;28;1230;-77
2022/05/28 06:35:25;;;;;;;;;;;;;;;;;;5085046;28;1168;-78
2022/05/28 06:37:50;;;;;;;;;;;;;;;;;;5077761;28;1417;-77
2022/05/28 06:40:15;;;;;;;;;;;;;;;;;;5102470;28;1300;-77
2022/05/28 06:42:41;;;;;;;;;;;;;;;;;;5086250;28;1211;-78
2022/05/28 06:45:07;;;;;;;;;;;;;;;;;;5092163;28;1894;-78
2022/05/28 06:47:33;;;;;;;;;;;;;;;;;;5078808;28;1306;-77
2022/05/28 06:52:43;;;;;;;;;;;;;;;;;;5090693;28;982;-79
2022/05/28 06:55:08;;;;;;;;;;;;;;;;;;5084168;28;1109;-76
2022/05/28 06:57:33;;;;;;;;;;;;;;;;;;5083759;28;1160;-75
2022/05/28 06:59:59;;;;;;;;;;;;;;;;;;5065808;28;1171;-76
2022/05/28 07:02:24;;;;;;;;;;;;;;;;;;5108602;28;1221;-78
2022/05/28 07:04:50;;;;;;;;;;;;;;;;;;5113223;28;1905;-78
2022/05/28 07:07:15;;;;;;;;;;;;;;;;;;5103457;28;1325;-77
2022/05/28 07:09:40;;;;;;;;;;;;;;;;;;5086546;28;1254;-77
2022/05/28 07:12:06;;;;;;;;;;;;;;;;;;5083521;28;1168;-77
2022/05/28 07:14:31;;;;;;;;;;;;;;;;;;5067351;28;1265;-77
2022/05/28 07:16:57;;;;;;;;;;;;;;;;;;5069646;28;1155;-78
2022/05/28 07:19:23;;;;;;;;;;;;;;;;;;5084482;28;1226;-77
2022/05/28 07:21:48;;;;;;;;;;;;;;;;;;5062918;28;1171;-78
2022/05/28 07:24:13;;;;;;;;;;;;;;;;;;5086015;28;1898;-77
2022/05/28 07:26:40;;;;;;;;;;;;;;;;;;5089387;28;1244;-77
2022/05/28 07:29:05;;;;;;;;;;;;;;;;;;5099752;28;1153;-77
2022/05/28 07:31:33;;;;;;;;;;;;;;;;;;5065451;28;1195;-76
2022/05/28 07:33:59;;;;;;;;;;;;;;;;;;5076393;28;1236;-76
2022/05/28 07:36:27;;;;;;;;;;;;;;;;;;5083650;28;1128;-77
2022/05/28 07:38:53;;;;;;;;;;;;;;;;;;5068563;28;1453;-77
2022/05/28 07:41:20;;;;;;;;;;;;;;;;;;5099357;28;1309;-77
2022/05/28 07:43:47;;;;;;;;;;;;;;;;;;5091110;28;1902;-77
2022/05/28 07:46:12;;;;;;;;;;;;;;;;;;5084821;28;1165;-77
2022/05/28 07:48:38;;;;;;;;;;;;;;;;;;5106034;28;1301;-77
2022/05/28 07:51:03;;;;;;;;;;;;;;;;;;5102827;28;1168;-76
2022/05/28 07:53:28;;;;;;;;;;;;;;;;;;5103942;28;1227;-76
2022/05/28 07:55:54;;;;;;;;;;;;;;;;;;5066528;28;1349;-77
2022/05/28 07:58:20;;;;;;;;;;;;;;;;;;5065171;28;1291;-77
2022/05/28 08:00:47;;;;;;;;;;;;;;;;;;5085819;28;1196;-77
2022/05/28 08:03:13;;;;;;;;;;;;;;;;;;5085975;28;1967;-76
2022/05/28 08:05:40;;;;;;;;;;;;;;;;;;5087432;28;1334;-77
2022/05/28 08:08:06;;;;;;;;;;;;;;;;;;5107396;28;1175;-77
2022/05/28 08:10:31;;;;;;;;;;;;;;;;;;5101725;28;1289;-79
2022/05/28 08:13:05;;;;;;;;;;;;;;;;;;5088353;28;1316;-76
2022/05/28 08:15:33;;;;;;;;;;;;;;;;;;5104110;28;1229;-76
2022/05/28 08:17:58;;;;;;;;;;;;;;;;;;5085068;28;1449;-76
2022/05/28 08:23:08;;;;;;;;;;;;;;;;;;5061020;28;1266;-76
2022/05/28 08:23:08;;;;;;;;;;;;;;;;;;5087936;28;1882;-77
2022/05/28 08:25:39;;;;;;;;;;;;;;;;;;5095257;28;1206;-77
2022/05/28 08:28:04;;;;;;;;;;;;;;;;;;5082764;28;1352;-77
2022/05/28 08:30:30;;;;;;;;;;;;;;;;;;5094572;28;1144;-76
2022/05/28 08:32:55;;;;;;;;;;;;;;;;;;5075991;28;1212;-77
2022/05/28 08:35:21;;;;;;;;;;;;;;;;;;5064671;28;1299;-76
2022/05/28 08:37:47;;;;;;;;;;;;;;;;;;5102452;28;1139;-76
2022/05/28 08:40:13;;;;;;;;;;;;;;;;;;5081452;28;1201;-76
2022/05/28 08:42:39;;;;;;;;;;;;;;;;;;5084723;28;1179;-76
2022/05/28 08:45:05;;;;;;;;;;;;;;;;;;5066951;28;1986;-77
2022/05/28 08:47:33;;;;;;;;;;;;;;;;;;5065152;28;1223;-76
2022/05/28 08:49:58;;;;;;;;;;;;;;;;;;5085273;28;1005;-76
2022/05/28 08:52:24;;;;;;;;;;;;;;;;;;5082021;28;1143;-76
2022/05/28 08:55:02;;;;;;;;;;;;;;;;;;5086775;28;825;-76
2022/05/28 08:57:30;;;;;;;;;;;;;;;;;;5084306;28;817;-77
2022/05/28 09:00:00;;;;;;;;;;;;;;;;;;5084186;28;1150;-77
2022/05/28 09:02:37;;;;;;;;;;;;;;;;;;5082114;28;1183;-76
2022/05/28 09:05:03;;;;;;;;;;;;;;;;;;5084194;28;1914;-76
2022/05/28 09:07:29;;;;;;;;;;;;;;;;;;5079994;28;1260;-77
2022/05/28 09:09:57;;;;;;;;;;;;;;;;;;5075599;28;1361;-77
2022/05/28 09:12:29;;;;;;;;;;;;;;;;;;5099624;28;1188;-77
2022/05/28 09:14:54;;;;;;;;;;;;;;;;;;5085800;28;1132;-77
2022/05/28 09:17:24;;;;;;;;;;;;;;;;;;5079153;28;1208;-77
2022/05/28 09:19:57;;;;;;;;;;;;;;;;;;5083522;28;1341;-78
2022/05/28 09:22:24;;;;;;;;;;;;;;;;;;5082696;28;1176;-77
2022/05/28 09:24:50;;;;;;;;;;;;;;;;;;5102829;28;1889;-77
2022/05/28 09:27:35;;;;;;;;;;;;;;;;;;5097131;28;1091;-77
2022/05/28 09:30:17;;;;;;;;;;;;;;;;;;5085868;28;1194;-77
2022/05/28 09:32:45;;;;;;;;;;;;;;;;;;5089409;28;1176;-77
2022/05/28 09:35:17;;;;;;;;;;;;;;;;;;5098414;28;1133;-77
2022/05/28 09:38:01;;;;;;;;;;;;;;;;;;5102321;28;1304;-78
2022/05/28 09:40:40;;;;;;;;;;;;;;;;;;5094703;28;1351;-76
2022/05/28 09:43:13;;;;;;;;;;;;;;;;;;5086600;28;1905;-76
2022/05/28 09:45:50;;;;;;;;;;;;;;;;;;5092177;27;1246;-76
2022/05/28 09:48:17;;;;;;;;;;;;;;;;;;5102737;27;1209;-75
2022/05/28 09:50:43;;;;;;;;;;;;;;;;;;5104203;27;1284;-76
2022/05/28 09:56:06;;;;;;;;;;;;;;;;;;5123962;27;1000;-76
2022/05/28 09:58:35;;;;;;;;;;;;;;;;;;5085221;28;1261;-76
2022/05/28 10:01:14;;;;;;;;;;;;;;;;;;5086803;28;1388;-76
2022/05/28 10:06:28;;;;;;;;;;;;;;;;;;5100934;28;887;-76
2022/05/28 10:08:53;;;;;;;;;;;;;;;;;;5089378;28;1024;-76
2022/05/28 10:11:22;;;;;;;;;;;;;;;;;;5082062;28;1329;-76
2022/05/28 10:13:56;;;;;;;;;;;;;;;;;;5086462;28;1176;-77
2022/05/28 10:16:23;;;;;;;;;;;;;;;;;;5083884;28;1326;-76
2022/05/28 10:18:52;;;;;;;;;;;;;;;;;;5084841;28;1104;-76
2022/05/28 10:21:26;;;;;;;;;;;;;;;;;;5103637;28;1210;-77
2022/05/28 10:23:54;;;;;;;;;;;;;;;;;;5087488;28;1890;-77
2022/05/28 10:26:31;;;;;;;;;;;;;;;;;;5121601;27;1199;-81
2022/05/28 10:29:02;;;;;;;;;;;;;;;;;;5104464;27;1286;-82
2022/05/28 10:31:36;;;;;;;;;;;;;;;;;;5095110;28;1154;-82
2022/05/28 10:34:02;;;;;;;;;;;;;;;;;;5100796;27;1247;-86
2022/05/28 10:36:38;;;;;;;;;;;;;;;;;;5100609;27;1273;-81
2022/05/28 10:39:09;;;;;;;;;;;;;;;;;;5099234;28;1182;-80
2022/05/28 10:41:35;;;;;;;;;;;;;;;;;;5112565;27;1119;-81
2022/05/28 10:44:00;;;;;;;;;;;;;;;;;;5090905;28;1961;-81
2022/05/28 10:46:46;;;;;;;;;;;;;;;;;;5081883;28;1231;-80
2022/05/28 10:49:20;;;;;;;;;;;;;;;;;;5096643;28;1155;-81
2022/05/28 10:52:04;;;;;;;;;;;;;;;;;;5085796;28;1297;-82
2022/05/28 10:54:40;;;;;;;;;;;;;;;;;;5090591;28;1265;-82
2022/05/28 10:57:12;;;;;;;;;;;;;;;;;;5096051;28;1227;-82
2022/05/28 11:00:00;;;;;;;;;;;;;;;;;;5096152;28;1313;-82
2022/05/28 11:02:26;;;;;;;;;;;;;;;;;;5087300;28;1179;-81
2022/05/28 11:05:02;;;;;;;;;;;;;;;;;;5089612;28;1902;-82
2022/05/28 11:07:48;;;;;;;;;;;;;;;;;;5092075;28;1120;-80
2022/05/28 11:10:29;;;;;;;;;;;;;;;;;;5090642;28;1338;-81
2022/05/28 11:13:16;;;;;;;;;;;;;;;;;;5090880;28;1195;-78
2022/05/28 11:15:54;;;;;;;;;;;;;;;;;;5095755;28;1116;-76
2022/05/28 11:18:39;;;;;;;;;;;;;;;;;;5090448;28;1432;-78
2022/05/28 11:21:05;;;;;;;;;;;;;;;;;;5099222;28;1298;-78
2022/05/28 11:24:06;;;;;;;;;;;;;;;;;;5098195;28;1909;-76
2022/05/28 11:26:53;;;;;;;;;;;;;;;;;;5022885;28;1338;-77
2022/05/28 11:29:28;;;;;;;;;;;;;;;;;;5093872;28;1345;-78
2022/05/28 11:32:02;;;;;;;;;;;;;;;;;;5090693;28;1197;-79
2022/05/28 11:34:42;;;;;;;;;;;;;;;;;;5079120;28;1390;-79
2022/05/28 11:37:23;;;;;;;;;;;;;;;;;;5081484;28;1324;-78
2022/05/28 11:40:00;;;;;;;;;;;;;;;;;;5091957;28;1187;-80
2022/05/28 11:42:31;;;;;;;;;;;;;;;;;;5091117;28;1226;-80
2022/05/28 11:44:57;;;;;;;;;;;;;;;;;;5102744;28;1902;-80
2022/05/28 11:47:32;;;;;;;;;;;;;;;;;;5090010;28;1175;-77
2022/05/28 11:53:01;;;;;;;;;;;;;;;;;;5107002;28;1060;-76
2022/05/28 11:55:33;;;;;;;;;;;;;;;;;;5104132;28;1277;-77
2022/05/28 11:58:08;;;;;;;;;;;;;;;;;;5102938;28;1123;-77
2022/05/28 12:00:36;;;;;;;;;;;;;;;;;;5105190;28;1348;-77
2022/05/28 12:03:16;;;;;;;;;;;;;;;;;;5106381;28;1975;-77
2022/05/28 12:05:47;;;;;;;;;;;;;;;;;;5104794;28;1239;-76
2022/05/28 12:08:39;;;;;;;;;;;;;;;;;;5107304;28;794;-76
2022/05/28 12:11:07;;;;;;;;;;;;;;;;;;5099959;28;1414;-77
2022/05/28 12:13:52;;;;;;;;;;;;;;;;;;5106203;28;1206;-77
2022/05/28 12:16:18;;;;;;;;;;;;;;;;;;5113906;28;1002;-77
2022/05/28 12:18:54;;;;;;;;;;;;;;;;;;5105644;28;1281;-76
2022/05/28 12:21:25;;;;;;;;;;;;;;;;;;5109957;28;1179;-77
2022/05/28 12:23:50;;;;;;;;;;;;;;;;;;5088913;28;1902;-75
2022/05/28 12:29:32;;;;;;;;;;;;;;;;;;5110910;28;1187;-75
2022/05/28 12:32:16;;;;;;;;;;;;;;;;;;5086911;28;1078;-76
2022/05/28 12:34:56;;;;;;;;;;;;;;;;;;5083957;28;1238;-76
2022/05/28 12:37:25;;;;;;;;;;;;;;;;;;5084539;28;1161;-77
2022/05/28 12:40:00;;;;;;;;;;;;;;;;;;5084191;28;1287;-76
2022/05/28 12:42:30;;;;;;;;;;;;;;;;;;5085529;28;1062;-76
2022/05/28 12:44:55;;;;;;;;;;;;;;;;;;5115414;27;1979;-76
2022/05/28 12:47:26;;;;;;;;;;;;;;;;;;5108503;27;1150;-78
2022/05/28 12:49:52;;;;;;;;;;;;;;;;;;5090928;28;1170;-77
2022/05/28 12:52:36;;;;;;;;;;;;;;;;;;5090150;28;1306;-77
2022/05/28 12:55:17;;;;;;;;;;;;;;;;;;5087337;28;1178;-77
2022/05/28 12:57:43;;;;;;;;;;;;;;;;;;5087306;28;1345;-77
2022/05/28 13:00:34;;;;;;;;;;;;;;;;;;5088238;28;1318;-78
2022/05/28 13:02:59;;;;;;;;;;;;;;;;;;5108792;28;901;-77
2022/05/28 13:05:38;;;;;;;;;;;;;;;;;;5088770;28;1964;-75
2022/05/28 13:08:07;;;;;;;;;;;;;;;;;;5105381;27;1317;-75
2022/05/28 13:10:33;;;;;;;;;;;;;;;;;;5106413;27;1262;-74
2022/05/28 13:13:08;;;;;;;;;;;;;;;;;;5085561;28;1488;-76
2022/05/28 13:15:48;;;;;;;;;;;;;;;;;;5091717;28;1314;-79
2022/05/28 13:18:32;;;;;;;;;;;;;;;;;;5094851;27;1253;-78
2022/05/28 13:21:13;;;;;;;;;;;;;;;;;;5094880;28;1264;-78
2022/05/28 13:23:50;;;;;;;;;;;;;;;;;;5105752;27;1890;-78
2022/05/28 13:26:34;;;;;;;;;;;;;;;;;;5089245;27;1179;-79
2022/05/28 13:29:05;;;;;;;;;;;;;;;;;;5124334;27;1127;-79
2022/05/28 13:31:36;;;;;;;;;;;;;;;;;;5104905;27;1199;-78
2022/05/28 13:34:03;;;;;;;;;;;;;;;;;;5102919;27;1203;-79
2022/05/28 13:36:33;;;;;;;;;;;;;;;;;;5098453;27;1268;-77
2022/05/28 13:39:00;;;;;;;;;;;;;;;;;;5105516;27;1245;-77
2022/05/28 13:41:26;;;;;;;;;;;;;;;;;;5125154;27;881;-76
2022/05/28 13:43:54;;;;;;;;;;;;;;;;;;5104139;28;2033;-77
2022/05/28 13:46:19;;;;;;;;;;;;;;;;;;5104016;28;1309;-77
2022/05/28 13:49:06;;;;;;;;;;;;;;;;;;5102729;28;881;-77
2022/05/28 13:51:32;;;;;;;;;;;;;;;;;;5103803;28;762;-74
2022/05/28 13:54:03;;;;;;;;;;;;;;;;;;5102636;28;1237;-75
2022/05/28 13:56:32;;;;;;;;;;;;;;;;;;5099664;28;1257;-75
2022/05/28 13:58:58;;;;;;;;;;;;;;;;;;5086152;28;1175;-77
2022/05/28 14:01:39;;;;;;;;;;;;;;;;;;5104301;28;869;-75
2022/05/28 14:04:12;;;;;;;;;;;;;;;;;;5105161;28;1926;-75
2022/05/28 14:06:42;;;;;;;;;;;;;;;;;;5099964;28;1368;-76
2022/05/28 14:09:07;;;;;;;;;;;;;;;;;;5099382;28;1337;-76
2022/05/28 14:11:39;;;;;;;;;;;;;;;;;;5100878;28;1072;-76
2022/05/28 14:14:16;;;;;;;;;;;;;;;;;;5104364;28;1246;-76
2022/05/28 14:16:44;;;;;;;;;;;;;;;;;;5099572;28;1162;-75
2022/05/28 14:19:16;;;;;;;;;;;;;;;;;;5101883;28;1199;-76
2022/05/28 14:21:48;;;;;;;;;;;;;;;;;;5080347;28;1234;-76
2022/05/28 14:24:34;;;;;;;;;;;;;;;;;;5081897;28;1893;-75
2022/05/28 14:27:05;;;;;;;;;;;;;;;;;;5078759;28;1152;-76
2022/05/28 14:29:33;;;;;;;;;;;;;;;;;;5081955;28;1196;-76
2022/05/28 14:32:01;;;;;;;;;;;;;;;;;;5081206;28;1097;-76
2022/05/28 14:34:27;;;;;;;;;;;;;;;;;;5084565;28;1276;-75
2022/05/28 14:36:54;;;;;;;;;;;;;;;;;;5080459;28;1231;-76
2022/05/28 14:39:19;;;;;;;;;;;;;;;;;;5092994;28;1302;-76
2022/05/28 14:42:01;;;;;;;;;;;;;;;;;;5097348;28;1349;-76
2022/05/28 14:44:27;;;;;;;;;;;;;;;;;;5089658;28;1985;-76
2022/05/28 14:46:53;;;;;;;;;;;;;;;;;;5082037;28;1249;-76
2022/05/28 14:49:28;;;;;;;;;;;;;;;;;;5094071;28;1195;-77
2022/05/28 14:52:02;;;;;;;;;;;;;;;;;;5083239;28;1348;-77
2022/05/28 14:54:32;;;;;;;;;;;;;;;;;;5092957;28;1154;-77
2022/05/28 14:56:58;;;;;;;;;;;;;;;;;;5099179;28;1292;-77
2022/05/28 14:59:43;;;;;;;;;;;;;;;;;;5079238;28;1325;-75
2022/05/28 15:02:11;;;;;;;;;;;;;;;;;;5092304;28;1043;-75
2022/05/28 15:04:37;;;;;;;;;;;;;;;;;;5075346;28;1965;-75
2022/05/28 15:07:06;;;;;;;;;;;;;;;;;;5074894;28;1077;-76
2022/05/28 15:09:43;;;;;;;;;;;;;;;;;;5078556;28;1366;-75
2022/05/28 15:12:23;;;;;;;;;;;;;;;;;;5083183;28;1217;-75
2022/05/28 15:14:48;;;;;;;;;;;;;;;;;;5094158;28;1285;-76
2022/05/28 15:17:13;;;;;;;;;;;;;;;;;;5059505;28;1396;-75
2022/05/28 15:19:39;;;;;;;;;;;;;;;;;;5094268;28;1226;-76
2022/05/28 15:22:08;;;;;;;;;;;;;;;;;;5067779;28;1056;-75
2022/05/28 15:24:33;;;;;;;;;;;;;;;;;;5085310;28;1961;-75
2022/05/28 15:26:58;;;;;;;;;;;;;;;;;;5094847;28;1112;-74
2022/05/28 15:29:26;;;;;;;;;;;;;;;;;;5095158;28;1019;-74
2022/05/28 15:31:52;;;;;;;;;;;;;;;;;;5093972;28;1100;-76
2022/05/28 15:34:18;;;;;;;;;;;;;;;;;;5077665;28;1202;-74
2022/05/28 15:39:27;;;;;;;;;;;;;;;;;;5071368;28;988;-75
2022/05/28 15:41:53;;;;;;;;;;;;;;;;;;5060372;28;1329;-76
2022/05/28 15:44:18;;;;;;;;;;;;;;;;;;5062055;28;1902;-75
2022/05/28 15:46:44;;;;;;;;;;;;;;;;;;5058050;28;1280;-74
2022/05/28 15:49:12;;;;;;;;;;;;;;;;;;5086535;28;1223;-77
2022/05/28 15:51:37;;;;;;;;;;;;;;;;;;5094010;28;1159;-77
2022/05/28 15:54:05;;;;;;;;;;;;;;;;;;5086006;28;1072;-77
2022/05/28 15:56:30;;;;;;;;;;;;;;;;;;5086979;28;1271;-77
2022/05/28 15:58:55;;;;;;;;;;;;;;;;;;5081242;28;1168;-77
2022/05/28 16:01:25;;;;;;;;;;;;;;;;;;5073692;28;1222;-77
2022/05/28 16:03:52;;;;;;;;;;;;;;;;;;5072406;28;1893;-77
2022/05/28 16:06:19;;;;;;;;;;;;;;;;;;5055455;28;1206;-77
2022/05/28 16:08:47;;;;;;;;;;;;;;;;;;5096739;28;1227;-77
2022/05/28 16:11:15;;;;;;;;;;;;;;;;;;5076056;28;1041;-78
2022/05/28 16:13:43;;;;;;;;;;;;;;;;;;5078850;28;1151;-78
2022/05/28 16:16:10;;;;;;;;;;;;;;;;;;5064289;28;1243;-77
2022/05/28 16:18:35;;;;;;;;;;;;;;;;;;5092019;28;1084;-77
2022/05/28 16:21:01;;;;;;;;;;;;;;;;;;5077572;28;1321;-75
2022/05/28 16:23:29;;;;;;;;;;;;;;;;;;5097003;28;1893;-76
2022/05/28 16:25:54;;;;;;;;;;;;;;;;;;5088808;28;1333;-75
2022/05/28 16:28:20;;;;;;;;;;;;;;;;;;5085559;28;1344;-76
2022/05/28 16:30:46;;;;;;;;;;;;;;;;;;5054775;28;1424;-76
2022/05/28 16:33:11;;;;;;;;;;;;;;;;;;5052770;28;1184;-76
2022/05/28 16:35:37;;;;;;;;;;;;;;;;;;5075666;28;1283;-77
2022/05/28 16:38:02;;;;;;;;;;;;;;;;;;5065509;28;1400;-76
2022/05/28 16:40:28;;;;;;;;;;;;;;;;;;5083020;28;1287;-76
2022/05/28 16:42:53;;;;;;;;;;;;;;;;;;5086870;28;1139;-76
2022/05/28 16:45:18;;;;;;;;;;;;;;;;;;5085954;28;1898;-76
2022/05/28 16:47:43;;;;;;;;;;;;;;;;;;5085667;28;1216;-76
2022/05/28 16:50:09;;;;;;;;;;;;;;;;;;5100116;28;1160;-76
2022/05/28 16:52:34;;;;;;;;;;;;;;;;;;5084302;28;1436;-76
2022/05/28 16:55:00;;;;;;;;;;;;;;;;;;5092703;28;1139;-76
2022/05/28 16:57:26;;;;;;;;;;;;;;;;;;5095612;28;1347;-76
2022/05/28 16:59:52;;;;;;;;;;;;;;;;;;5090701;28;1333;-76
2022/05/28 17:02:18;;;;;;;;;;;;;;;;;;5094169;28;1172;-77
2022/05/28 17:04:44;;;;;;;;;;;;;;;;;;5105142;28;1973;-76
2022/05/28 17:07:09;;;;;;;;;;;;;;;;;;5083992;28;1269;-77
2022/05/28 17:09:34;;;;;;;;;;;;;;;;;;5084527;28;1175;-77
2022/05/28 17:11:59;;;;;;;;;;;;;;;;;;5093426;28;1258;-77
2022/05/28 17:14:25;;;;;;;;;;;;;;;;;;5093740;28;1257;-77
2022/05/28 17:16:51;;;;;;;;;;;;;;;;;;5100597;28;1229;-77
2022/05/28 17:19:17;;;;;;;;;;;;;;;;;;5102917;28;1241;-77
2022/05/28 17:21:43;;;;;;;;;;;;;;;;;;5092740;28;1214;-76
2022/05/28 17:24:17;;;;;;;;;;;;;;;;;;5084591;28;1890;-78
2022/05/28 17:26:42;;;;;;;;;;;;;;;;;;5094744;28;1120;-77
2022/05/28 17:29:08;;;;;;;;;;;;;;;;;;5086909;28;1057;-78
2022/05/28 17:31:34;;;;;;;;;;;;;;;;;;5072091;28;1357;-77